CW3001 Weather Reports


time (UTC)temp
C
wind
direction
speed
KPH
gust
KPH
rain 1hr
cm
rain 24hr
cm
rain mn
cm
humidity
%
barometer
mb
20190422144550 25 128 11.3 24.1 0.00 0.00 0.00 26 1004.5
20190422144045 25 117 14.5 27.4 0.00 0.00 0.00 28 1004.5
20190422143547 25 123 12.9 27.4 0.00 0.00 0.00 26 1004.6
20190422143044 25 111 8.0 22.5 0.00 0.00 0.00 26 1004.7
20190422142547 25 109 8.0 24.1 0.00 0.00 0.00 27 1004.7
20190422142043 25 121 9.7 24.1 0.00 0.00 0.00 27 1004.8
20190422141548 25 121 9.7 20.9 0.00 0.00 0.00 26 1004.9
20190422141046 25 120 12.9 29.0 0.00 0.00 0.00 27 1005.1
20190422140548 24 111 14.5 29.0 0.00 0.00 0.00 27 1005.1
20190422140044 25 124 16.1 29.0 0.00 0.00 0.00 28 1005.3
20190422135546 24 78 16.1 30.6 0.00 0.00 0.00 27 1005.3
20190422135045 24 114 14.5 30.6 0.00 0.00 0.00 26 1005.3
20190422134547 25 121 11.3 27.4 0.00 0.00 0.00 27 1005.5
20190422134044 25 109 11.3 24.1 0.00 0.00 0.00 28 1005.5
20190422133548 25 98 11.3 27.4 0.00 0.00 0.00 27 1005.5
20190422133045 24 108 12.9 27.4 0.00 0.00 0.00 28 1005.6
20190422132547 24 98 14.5 27.4 0.00 0.00 0.00 26 1005.7
20190422132044 24 126 12.9 27.4 0.00 0.00 0.00 26 1005.7
20190422131545 24 106 14.5 35.4 0.00 0.00 0.00 26 1005.8
20190422131044 24 128 17.7 35.4 0.00 0.00 0.00 25 1005.8
20190422130543 24 115 12.9 29.0 0.00 0.00 0.00 25 1005.9
20190422130041 25 127 9.7 24.1 0.00 0.00 0.00 26 1006.0
20190422125545 24 123 8.0 24.1 0.00 0.00 0.00 25 1006.0
20190422125041 24 104 9.7 22.5 0.00 0.00 0.00 24 1006.1
20190422124546 24 125 11.3 24.1 0.00 0.00 0.00 25 1006.2
20190422124042 25 66 9.7 24.1 0.00 0.00 0.00 23 1006.1
20190422123546 25 133 9.7 24.1 0.00 0.00 0.00 25 1006.3
20190422123048 24 125 11.3 25.7 0.00 0.00 0.00 27 1006.3
20190422122545 24 158 9.7 25.7 0.00 0.00 0.00 26 1006.4
20190422122037 25 99 11.3 25.7 0.00 0.00 0.00 25 1006.5
20190422121538 25 103 9.7 25.7 0.00 0.00 0.00 25 1006.6
20190422121034 25 84 8.0 24.1 0.00 0.00 0.00 25 1006.6
20190422120540 24 163 8.0 22.5 0.00 0.00 0.00 24 1006.7
20190422120032 24 131 9.7 24.1 0.00 0.00 0.00 25 1006.7
20190422115539 24 119 8.0 24.1 0.00 0.00 0.00 26 1006.7
20190422115031 24 125 12.9 30.6 0.00 0.00 0.00 25 1006.8
20190422114532 24 110 16.1 30.6 0.00 0.00 0.00 25 1006.8
20190422114029 24 104 16.1 27.4 0.00 0.00 0.00 25 1007.0
20190422113535 23 71 17.7 38.6 0.00 0.00 0.00 25 1007.0
20190422113027 23 125 16.1 38.6 0.00 0.00 0.00 25 1007.0
20190422112527 24 63 12.9 32.2 0.00 0.00 0.00 26 1007.1
20190422112028 24 89 12.9 32.2 0.00 0.00 0.00 25 1007.2
20190422111530 24 110 11.3 30.6 0.00 0.00 0.00 26 1007.3
20190422111028 24 116 8.0 30.6 0.00 0.00 0.00 28 1007.3
20190422110527 24 140 8.0 22.5 0.00 0.00 0.00 26 1007.3
20190422110032 24 141 9.7 25.7 0.00 0.00 0.00 26 1007.5
20190422105525 24 107 9.7 25.7 0.00 0.00 0.00 27 1007.5
20190422105025 24 107 8.0 20.9 0.00 0.00 0.00 27 1007.5
20190422104523 24 110 6.4 20.9 0.00 0.00 0.00 27 1007.5
20190422104024 24 141 4.8 19.3 0.00 0.00 0.00 26 1007.6
20190422103530 24 121 8.0 33.8 0.00 0.00 0.00 27 1007.7
20190422103022 24 136 6.4 33.8 0.00 0.00 0.00 26 1007.8
20190422102530 24 161 6.4 22.5 0.00 0.00 0.00 27 1007.8
20190422102023 23 104 6.4 22.5 0.00 0.00 0.00 28 1007.8
20190422101523 23 146 3.2 16.1 0.00 0.00 0.00 31 1008.0
20190422101026 24 129 3.2 16.1 0.00 0.00 0.00 30 1008.1
20190422100521 23 119 4.8 16.1 0.00 0.00 0.00 30 1008.0
20190422100024 23 141 3.2 16.1 0.00 0.00 0.00 31 1008.1
20190422095522 23 146 4.8 14.5 0.00 0.00 0.00 32 1008.3
20190422095025 23 164 4.8 14.5 0.00 0.00 0.00 33 1008.4
20190422094533 23 113 3.2 14.5 0.00 0.00 0.00 33 1008.4
20190422094025 22 118 4.8 16.1 0.00 0.00 0.00 37 1008.5
20190422093522 22 140 4.8 16.1 0.00 0.00 0.00 36 1008.5
20190422093024 22 141 3.2 14.5 0.00 0.00 0.00 34 1008.7
20190422092524 22 136 1.6 11.3 0.00 0.00 0.00 38 1008.7
20190422092023 22 117 3.2 12.9 0.00 0.00 0.00 37 1008.7
20190422091023 21 133 6.4 14.5 0.00 0.00 0.00 40 1008.8
20190422090522 21 131 6.4 14.5 0.00 0.00 0.00 39 1008.9
20190422090041 21 110 6.4 12.9 0.00 0.00 0.00 39 1008.9
20190422085526 21 119 4.8 12.9 0.00 0.00 0.00 41 1009.0
20190422085026 21 113 3.2 12.9 0.00 0.00 0.00 40 1009.1
20190422084525 21 146 3.2 12.9 0.00 0.00 0.00 41 1009.0
20190422084025 21 113 3.2 11.3 0.00 0.00 0.00 43 1009.1
20190422083530 20 148 3.2 12.9 0.00 0.00 0.00 43 1009.2
20190422083032 20 125 3.2 12.9 0.00 0.00 0.00 44 1009.2
20190422082518 20 120 3.2 9.7 0.00 0.00 0.00 46 1009.3
20190422082021 19 122 3.2 9.7 0.00 0.00 0.00 48 1009.3
20190422081519 19 123 3.2 9.7 0.00 0.00 0.00 48 1009.2
20190422081020 18 103 4.8 11.3 0.00 0.00 0.00 50 1009.3
20190422080520 18 108 3.2 11.3 0.00 0.00 0.00 48 1009.3
20190422080018 18 113 3.2 9.7 0.00 0.00 0.00 50 1009.4
20190422075516 18 85 3.2 9.7 0.00 0.00 0.00 50 1009.4
20190422075012 17 117 3.2 11.3 0.00 0.00 0.00 51 1009.5
20190422074525 17 116 3.2 11.3 0.00 0.00 0.00 52 1009.5
20190422074012 17 108 3.2 11.3 0.00 0.00 0.00 53 1009.6
20190422073519 16 115 3.2 8.0 0.00 0.00 0.00 54 1009.6
20190422073018 16 113 4.8 9.7 0.00 0.00 0.00 55 1009.7
20190422072511 16 114 4.8 11.3 0.00 0.00 0.00 56 1009.7
20190422072014 16 125 3.2 11.3 0.00 0.00 0.00 57 1009.8
20190422071526 15 117 3.2 8.0 0.00 0.00 0.00 58 1009.8
20190422071014 15 94 1.6 8.0 0.00 0.00 0.00 59 1009.8
20190422070518 15 109 3.2 9.7 0.00 0.00 0.00 59 1009.9
20190422070019 15 127 3.2 9.7 0.00 0.00 0.00 59 1009.9
20190422065517 14 111 1.6 9.7 0.00 0.00 0.00 60 1009.9
20190422065014 14 88 1.6 8.0 0.00 0.00 0.00 60 1009.9
20190422064526 14 108 1.6 8.0 0.00 0.00 0.00 61 1010.0
20190422064013 13 119 1.6 6.4 0.00 0.00 0.00 61 1010.0
20190422063514 13 94 1.6 4.8 0.00 0.00 0.00 62 1010.0
20190422063018 13 99 1.6 4.8 0.00 0.00 0.00 62 1010.1
20190422062514 13 136 1.6 4.8 0.00 0.00 0.00 63 1010.0
20190422062014 13 108 0.0 3.2 0.00 0.00 0.00 64 1010.1
20190422061514 13 108 0.0 3.2 0.00 0.00 0.00 66 1010.0
20190422061014 13 108 1.6 4.8 0.00 0.00 0.00 68 1010.2
20190422060516 12 108 1.6 4.8 0.00 0.00 0.00 71 1010.2
20190422060017 12 106 1.6 4.8 0.00 0.00 0.00 74 1010.2
20190422055507 11 102 1.6 4.8 0.00 0.00 0.00 78 1010.2
20190422055014 10 118 0.0 3.2 0.00 0.00 0.00 83 1010.2
20190422054511 10 98 0.0 0.0 0.00 0.00 0.00 86 1010.2
20190422054013 9 80 0.0 0.0 0.00 0.00 0.00 87 1010.2
20190422053517 8 80 0.0 0.0 0.00 0.00 0.00 86 1010.2
20190422053005 8 80 0.0 0.0 0.00 0.00 0.00 87 1010.2
20190422052507 8 80 0.0 0.0 0.00 0.00 0.00 86 1010.3
20190422052006 7 80 0.0 0.0 0.00 0.00 0.00 86 1010.3
20190422051505 7 80 0.0 0.0 0.00 0.00 0.00 86 1010.3
20190422051005 7 80 0.0 0.0 0.00 0.00 0.00 86 1010.4
20190422050506 7 80 0.0 0.0 0.00 0.00 0.00 85 1010.3
20190422050007 6 80 0.0 0.0 0.00 0.00 0.00 85 1010.3
20190422045503 6 80 0.0 0.0 0.00 0.00 0.00 85 1010.4
20190422045005 6 80 0.0 0.0 0.00 0.00 0.00 85 1010.4
20190422044504 6 80 0.0 0.0 0.00 0.00 0.00 84 1010.4
20190422044001 6 80 0.0 0.0 0.00 0.00 0.00 84 1010.4
20190422043502 6 80 0.0 0.0 0.00 0.00 0.00 84 1010.4
20190422043001 6 80 0.0 0.0 0.00 0.00 0.00 84 1010.4
20190422042459 6 80 0.0 0.0 0.00 0.00 0.00 83 1010.5
20190422041959 6 80 0.0 0.0 0.00 0.00 0.00 84 1010.5
20190422041501 6 80 0.0 0.0 0.00 0.00 0.00 83 1010.5
20190422040959 6 80 0.0 0.0 0.00 0.00 0.00 83 1010.6
20190422040501 6 80 0.0 0.0 0.00 0.00 0.00 82 1010.6
20190422040014 6 80 0.0 0.0 0.00 0.00 0.00 82 1010.7
20190422035459 6 80 0.0 0.0 0.00 0.00 0.00 82 1010.7
20190422034958 6 80 0.0 0.0 0.00 0.00 0.00 82 1010.7
20190422034459 6 80 0.0 0.0 0.00 0.00 0.00 82 1010.8
20190422033959 7 81 0.0 0.0 0.00 0.00 0.00 82 1010.8
20190422033457 7 81 0.0 0.0 0.00 0.00 0.00 82 1010.9
20190422032959 7 81 0.0 0.0 0.00 0.00 0.00 82 1010.9
20190422032456 7 77 0.0 0.0 0.00 0.00 0.00 82 1011.0
20190422032004 7 77 0.0 1.6 0.00 0.00 0.00 81 1011.1
20190422031501 7 77 0.0 3.2 0.00 0.00 0.00 81 1011.1
20190422031016 7 77 0.0 3.2 0.00 0.00 0.00 81 1011.1
20190422030459 7 77 0.0 1.6 0.00 0.00 0.00 81 1011.2
20190422025958 7 77 0.0 0.0 0.00 0.00 0.00 80 1011.2
20190422025455 7 77 0.0 0.0 0.00 0.00 0.00 80 1011.3
20190422024955 7 77 0.0 0.0 0.00 0.00 0.00 80 1011.3
20190422024454 7 77 0.0 0.0 0.00 0.00 0.00 80 1011.3
20190422024000 7 77 0.0 0.0 0.00 0.00 0.00 80 1011.4
20190422023453 7 77 0.0 0.0 0.00 0.00 0.00 79 1011.4
20190422022955 7 77 0.0 0.0 0.00 0.00 0.00 79 1011.5
20190422022454 7 77 0.0 3.2 0.00 0.00 0.00 79 1011.6
20190422021954 7 77 0.0 3.2 0.00 0.00 0.00 79 1011.7
20190422021453 7 77 1.6 4.8 0.00 0.00 0.00 79 1011.8
20190422020950 7 77 1.6 4.8 0.00 0.00 0.00 79 1011.8
20190422020449 7 78 0.0 0.0 0.00 0.00 0.00 78 1011.9
20190422015953 7 78 0.0 0.0 0.00 0.00 0.00 78 1011.8
20190422015449 7 78 0.0 0.0 0.00 0.00 0.00 78 1011.9
20190422014948 7 78 0.0 0.0 0.00 0.00 0.00 78 1011.9
20190422014450 8 78 0.0 3.2 0.00 0.00 0.00 78 1012.0
20190422013954 8 78 0.0 3.2 0.00 0.00 0.00 78 1012.0
20190422013448 8 78 0.0 3.2 0.00 0.00 0.00 78 1012.1
20190422012947 8 78 1.6 3.2 0.00 0.00 0.00 78 1012.2
20190422012447 8 79 0.0 3.2 0.00 0.00 0.00 77 1012.2
20190422011946 8 80 0.0 3.2 0.00 0.00 0.00 77 1012.2
20190422011444 8 80 1.6 3.2 0.00 0.00 0.00 77 1012.3
20190422010943 8 81 1.6 4.8 0.00 0.00 0.00 77 1012.3
20190422010444 8 80 1.6 4.8 0.00 0.00 0.00 77 1012.4
20190422005947 8 81 1.6 4.8 0.00 0.00 0.00 76 1012.5
20190422005446 8 81 1.6 3.2 0.00 0.00 0.00 76 1012.6
20190422004948 8 81 0.0 3.2 0.00 0.00 0.00 75 1012.6
20190422004441 8 81 0.0 3.2 0.00 0.00 0.00 75 1012.7
20190422003946 8 81 1.6 3.2 0.00 0.00 0.00 75 1012.7
20190422003442 8 81 1.6 4.8 0.00 0.00 0.00 74 1012.8
20190422002948 8 61 0.0 4.8 0.00 0.00 0.00 74 1012.8
20190422002438 8 61 0.0 1.6 0.00 0.00 0.00 73 1012.9
20190422001940 8 61 0.0 1.6 0.00 0.00 0.00 73 1012.9
20190422001439 8 61 0.0 1.6 0.00 0.00 0.00 73 1012.9
20190422000938 9 61 0.0 1.6 0.00 0.00 0.00 72 1013.0
20190422000432 9 61 0.0 1.6 0.00 0.00 0.00 71 1013.1
20190421235933 9 61 0.0 1.6 0.00 0.00 0.00 71 1013.2
20190421235432 9 61 0.0 1.6 0.00 0.00 0.00 70 1013.3
20190421234941 9 61 0.0 1.6 0.00 0.00 0.00 69 1013.3
20190421234432 9 61 0.0 3.2 0.00 0.00 0.00 69 1013.4
20190421233933 10 61 1.6 3.2 0.00 0.00 0.00 68 1013.4
20190421233432 10 61 1.6 3.2 0.00 0.00 0.00 68 1013.5
20190421232932 10 61 1.6 3.2 0.00 0.00 0.00 67 1013.5
20190421232432 10 61 1.6 3.2 0.00 0.00 0.00 67 1013.5
20190421231932 10 61 1.6 3.2 0.00 0.00 0.00 66 1013.6
20190421231437 10 61 0.0 3.2 0.00 0.00 0.00 66 1013.6
20190421230931 10 61 0.0 0.0 0.00 0.00 0.00 65 1013.6
20190421230430 11 61 0.0 0.0 0.00 0.00 0.00 64 1013.7
20190421225933 11 61 0.0 0.0 0.00 0.00 0.00 64 1013.7
20190421225429 11 61 0.0 1.6 0.00 0.00 0.00 64 1013.8
20190421224932 11 61 0.0 1.6 0.00 0.00 0.00 63 1013.8
20190421224430 11 61 0.0 1.6 0.00 0.00 0.00 63 1013.9
20190421223930 11 61 0.0 3.2 0.00 0.00 0.00 62 1013.9
20190421223432 11 61 0.0 3.2 0.00 0.00 0.00 62 1013.9
20190421222935 11 61 1.6 4.8 0.00 0.00 0.00 61 1013.9
20190421222429 12 61 1.6 4.8 0.00 0.00 0.00 61 1013.9
20190421221933 12 62 1.6 4.8 0.00 0.00 0.00 60 1013.9
20190421221432 12 62 1.6 4.8 0.00 0.00 0.00 60 1014.0
20190421220935 12 61 0.0 3.2 0.00 0.00 0.00 59 1014.0
20190421220431 12 64 0.0 1.6 0.00 0.00 0.00 58 1014.0
20190421215931 13 64 1.6 4.8 0.00 0.00 0.00 57 1014.1
20190421215430 13 64 1.6 6.4 0.00 0.00 0.00 55 1014.1
20190421214931 14 66 1.6 6.4 0.00 0.00 0.00 53 1014.1
20190421214432 15 69 3.2 6.4 0.00 0.00 0.00 51 1014.2
20190421213931 15 73 3.2 6.4 0.00 0.00 0.00 50 1014.2
20190421213434 15 78 3.2 6.4 0.00 0.00 0.00 48 1014.3
20190421212939 15 66 3.2 8.0 0.00 0.00 0.00 48 1014.3
20190421212429 15 69 3.2 8.0 0.00 0.00 0.00 48 1014.3
20190421211930 15 76 3.2 8.0 0.00 0.00 0.00 49 1014.4
20190421211429 15 94 3.2 8.0 0.00 0.00 0.00 51 1014.4
20190421210929 14 75 3.2 8.0 0.00 0.00 0.00 54 1014.4
20190421210429 13 69 3.2 6.4 0.00 0.00 0.00 57 1014.5
20190421205926 13 84 3.2 6.4 0.00 0.00 0.00 58 1014.6
20190421205427 13 76 3.2 6.4 0.00 0.00 0.00 59 1014.6
20190421204927 13 63 1.6 6.4 0.00 0.00 0.00 59 1014.6
20190421204427 13 61 1.6 4.8 0.00 0.00 0.00 58 1014.7
20190421203928 13 62 0.0 3.2 0.00 0.00 0.00 57 1014.7
20190421203429 13 65 0.0 0.0 0.00 0.00 0.00 56 1014.7
20190421202927 14 65 0.0 0.0 0.00 0.00 0.00 55 1014.8
20190421202429 15 65 0.0 0.0 0.00 0.00 0.00 53 1014.8
20190421201927 15 65 0.0 3.2 0.00 0.00 0.00 53 1014.8
20190421201426 15 65 1.6 4.8 0.00 0.00 0.00 51 1014.8
20190421200927 16 67 1.6 4.8 0.00 0.00 0.00 49 1014.9
20190421200429 16 71 1.6 4.8 0.00 0.00 0.00 48 1014.9
20190421195926 17 79 1.6 8.0 0.00 0.00 0.00 47 1014.9
20190421195426 17 90 1.6 8.0 0.00 0.00 0.00 45 1014.9
20190421194931 17 90 3.2 8.0 0.00 0.00 0.00 44 1014.9
20190421194426 17 75 3.2 6.4 0.00 0.00 0.00 44 1014.9
20190421193924 17 71 3.2 6.4 0.00 0.00 0.00 45 1014.9
20190421193424 17 79 3.2 8.0 0.00 0.00 0.00 44 1014.9
20190421192927 18 67 3.2 8.0 0.00 0.00 0.00 44 1014.9
20190421192424 18 67 3.2 6.4 0.00 0.00 0.00 43 1014.9
20190421191924 18 76 1.6 6.4 0.00 0.00 0.00 42 1014.9
20190421191443 18 71 1.6 6.4 0.00 0.00 0.00 42 1014.9
20190421190925 18 78 3.2 6.4 0.00 0.00 0.00 41 1014.9
20190421190423 19 65 4.8 11.3 0.00 0.00 0.00 41 1014.9
20190421185926 19 76 4.8 11.3 0.00 0.00 0.00 41 1014.9
20190421185422 19 73 3.2 8.0 0.00 0.00 0.00 40 1014.8
20190421184922 19 62 3.2 8.0 0.00 0.00 0.00 39 1014.8
20190421184418 19 64 3.2 6.4 0.00 0.00 0.00 37 1014.8
20190421183920 20 59 3.2 6.4 0.00 0.00 0.00 36 1014.8
20190421183418 21 71 1.6 4.8 0.00 0.00 0.00 35 1014.8
20190421182919 21 97 1.6 4.8 0.00 0.00 0.00 32 1014.8
20190421182418 21 97 1.6 8.0 0.00 0.00 0.00 31 1014.7
20190421181917 22 107 1.6 8.0 0.00 0.00 0.00 30 1014.7
20190421181413 22 100 1.6 8.0 0.00 0.00 0.00 30 1014.8
20190421180912 22 109 3.2 8.0 0.00 0.00 0.00 30 1014.7
20190421180412 22 87 3.2 11.3 0.00 0.00 0.00 29 1014.7
20190421175911 22 80 1.6 11.3 0.00 0.00 0.00 29 1014.7
20190421175410 22 76 3.2 11.3 0.00 0.00 0.00 29 1014.8
20190421174911 22 112 1.6 6.4 0.00 0.00 0.00 29 1014.9
20190421174409 23 92 3.2 12.9 0.00 0.00 0.00 29 1014.8
20190421173908 23 113 3.2 12.9 0.00 0.00 0.00 29 1014.9
20190421173407 23 71 3.2 12.9 0.00 0.00 0.00 29 1014.9
20190421172914 23 99 4.8 12.9 0.00 0.00 0.00 29 1014.9
20190421172421 23 131 4.8 11.3 0.00 0.00 0.00 29 1014.9
20190421171922 23 107 3.2 11.3 0.00 0.00 0.00 29 1015.0
20190421171408 23 94 4.8 12.9 0.00 0.00 0.00 30 1015.0
20190421170923 23 102 4.8 12.9 0.00 0.00 0.00 30 1015.1
20190421170421 23 104 4.8 14.5 0.00 0.00 0.00 29 1015.1
20190421165921 23 86 4.8 14.5 0.00 0.00 0.00 31 1015.2
20190421165423 23 75 4.8 14.5 0.00 0.00 0.00 29 1015.2
20190421164921 24 111 4.8 14.5 0.00 0.00 0.00 29 1015.3
20190421164423 24 111 3.2 9.7 0.00 0.00 0.00 30 1015.3
20190421163921 24 98 1.6 9.7 0.00 0.00 0.00 31 1015.3
20190421163411 24 114 4.8 11.3 0.00 0.00 0.00 29 1015.4
20190421162921 24 92 4.8 11.3 0.00 0.00 0.00 30 1015.5
20190421162420 24 122 4.8 12.9 0.00 0.00 0.00 30 1015.5
20190421161923 24 130 4.8 14.5 0.00 0.00 0.00 29 1015.6
20190421161421 25 116 3.2 14.5 0.00 0.00 0.00 30 1015.6
20190421160920 25 131 1.6 8.0 0.00 0.00 0.00 29 1015.7
20190421160421 24 136 1.6 11.3 0.00 0.00 0.00 29 1015.8
20190421155921 25 108 1.6 11.3 0.00 0.00 0.00 28 1015.8
20190421155421 25 111 1.6 6.4 0.00 0.00 0.00 28 1015.9
20190421154924 25 115 1.6 6.4 0.00 0.00 0.00 28 1015.9
20190421154421 25 98 1.6 6.4 0.00 0.00 0.00 28 1016.0
20190421153919 25 117 0.0 3.2 0.00 0.00 0.00 26 1016.0
20190421153413 25 92 1.6 6.4 0.00 0.00 0.00 28 1016.1
20190421152418 25 65 3.2 12.9 0.00 0.00 0.00 27 1016.2
20190421151912 25 106 1.6 12.9 0.00 0.00 0.00 30 1016.3
20190421151413 25 147 1.6 11.3 0.00 0.00 0.00 27 1016.4
20190421150912 25 63 1.6 11.3 0.00 0.00 0.00 28 1016.3
20190421150413 25 98 3.2 12.9 0.00 0.00 0.00 29 1016.4
20190421145910 25 96 4.8 12.9 0.00 0.00 0.00 28 1016.5
20190421145409 25 120 3.2 12.9 0.00 0.00 0.00 29 1016.6
20190421144909 25 200 1.6 9.7 0.00 0.00 0.00 29 1016.5